createdAt,value
2023-03-06T00:01:10.014Z,74.96
2023-03-06T00:03:37.952Z,74.70
2023-03-06T00:06:07.861Z,75.03
2023-03-06T00:08:35.772Z,74.91
2023-03-06T00:11:03.707Z,75.26
2023-03-06T00:13:32.217Z,75.31
2023-03-06T00:16:01.660Z,75.05
2023-03-06T00:18:30.100Z,75.00
2023-03-06T00:20:57.973Z,75.65
2023-03-06T00:23:27.987Z,75.74
2023-03-06T00:25:55.965Z,75.71
2023-03-06T00:28:23.803Z,75.82
2023-03-06T00:30:51.965Z,76.06
2023-03-06T00:33:19.900Z,76.29
2023-03-06T00:35:47.779Z,76.32
2023-03-06T00:38:15.997Z,75.93
2023-03-06T00:40:45.534Z,76.34
2023-03-06T00:43:13.843Z,76.36
2023-03-06T00:45:41.877Z,76.04
2023-03-06T00:48:10.145Z,76.14
2023-03-06T00:50:37.996Z,76.27
2023-03-06T00:53:05.949Z,76.45
2023-03-06T00:55:33.907Z,76.30
2023-03-06T00:58:03.150Z,76.45
2023-03-06T01:00:31.073Z,76.14
2023-03-06T01:02:59.069Z,76.20
2023-03-06T01:05:26.944Z,76.45
2023-03-06T01:07:55.022Z,76.71
2023-03-06T01:10:23.218Z,76.62
2023-03-06T01:12:51.042Z,76.73
2023-03-06T01:15:20.980Z,76.62
2023-03-06T01:17:49.008Z,76.24
2023-03-06T01:20:18.272Z,77.03
2023-03-06T01:22:46.108Z,77.15
2023-03-06T01:25:14.214Z,77.09
2023-03-06T01:27:42.048Z,76.88
2023-03-06T01:30:11.098Z,77.17
2023-03-06T01:32:40.768Z,77.13
2023-03-06T01:35:09.313Z,76.96
2023-03-06T01:37:37.780Z,77.46
2023-03-06T01:40:07.487Z,76.87
2023-03-06T01:42:35.329Z,76.86
2023-03-06T01:45:06.831Z,77.45
2023-03-06T01:47:34.867Z,76.84
2023-03-06T01:50:05.755Z,77.12
2023-03-06T01:52:37.851Z,77.01
2023-03-06T01:55:11.047Z,76.63
2023-03-06T01:57:43.860Z,76.67
2023-03-06T02:00:15.348Z,76.85
2023-03-06T02:02:45.543Z,76.63
2023-03-06T02:05:15.027Z,77.18
2023-03-06T02:07:44.272Z,76.98
2023-03-06T02:10:13.148Z,77.03
2023-03-06T02:12:43.708Z,77.00
2023-03-06T02:15:13.084Z,77.14
2023-03-06T02:17:43.025Z,77.04
2023-03-06T02:20:17.434Z,77.00
2023-03-06T02:22:51.620Z,76.93
2023-03-06T02:25:36.899Z,77.24
2023-03-06T02:28:05.775Z,77.22
2023-03-06T02:30:34.113Z,76.90
2023-03-06T02:33:02.096Z,77.24
2023-03-06T02:35:31.995Z,76.81
2023-03-06T02:38:03.736Z,77.45
2023-03-06T02:40:33.448Z,77.55
2023-03-06T02:43:01.718Z,77.41
2023-03-06T02:45:35.201Z,77.49
2023-03-06T02:48:03.399Z,77.48
2023-03-06T02:50:31.702Z,76.98
2023-03-06T02:52:59.816Z,77.42
2023-03-06T02:55:27.779Z,77.38
2023-03-06T02:57:56.980Z,77.48
2023-03-06T03:00:25.236Z,77.66
2023-03-06T03:02:53.995Z,77.48
2023-03-06T03:05:21.845Z,77.71
2023-03-06T03:07:49.844Z,77.67
2023-03-06T03:10:18.132Z,77.67
2023-03-06T03:12:46.260Z,77.85
2023-03-06T03:15:15.881Z,77.82
2023-03-06T03:17:43.775Z,77.92
2023-03-06T03:20:14.514Z,77.67
2023-03-06T03:22:42.471Z,77.80
2023-03-06T03:25:11.114Z,78.04
2023-03-06T03:27:38.967Z,78.03
2023-03-06T03:30:08.073Z,78.12
2023-03-06T03:32:37.539Z,78.23
2023-03-06T03:35:06.029Z,78.19
2023-03-06T03:37:34.863Z,78.17
2023-03-06T03:40:04.216Z,78.17
2023-03-06T03:42:32.091Z,78.15
2023-03-06T03:45:00.012Z,78.22
2023-03-06T03:47:27.898Z,78.36
2023-03-06T03:49:57.083Z,78.24
2023-03-06T03:52:25.139Z,78.27
2023-03-06T03:54:53.050Z,78.46
2023-03-06T03:57:20.950Z,78.49
2023-03-06T03:59:48.987Z,78.26
2023-03-06T04:02:17.143Z,78.39
2023-03-06T04:04:45.055Z,78.21
2023-03-06T04:07:14.593Z,78.00
2023-03-06T04:09:42.709Z,78.18
2023-03-06T04:12:10.728Z,78.62
2023-03-06T04:14:38.667Z,78.80
2023-03-06T04:17:06.752Z,78.63
2023-03-06T04:19:34.545Z,78.64
2023-03-06T04:22:02.910Z,78.62
2023-03-06T04:24:32.228Z,78.89
2023-03-06T04:27:00.071Z,78.74
2023-03-06T04:29:28.027Z,78.90
2023-03-06T04:31:55.924Z,78.58
2023-03-06T04:34:23.758Z,78.57
2023-03-06T04:36:51.785Z,78.57
2023-03-06T04:39:19.719Z,78.75
2023-03-06T04:41:48.941Z,78.91
2023-03-06T04:44:16.943Z,78.94
2023-03-06T04:46:44.860Z,78.76
2023-03-06T04:49:12.688Z,78.91
2023-03-06T04:51:40.695Z,78.63
2023-03-06T04:54:08.577Z,79.22
2023-03-06T04:56:36.421Z,78.86
2023-03-06T04:59:05.972Z,79.21
2023-03-06T05:01:33.853Z,79.08
2023-03-06T05:04:01.784Z,79.25
2023-03-06T05:06:29.766Z,78.88
2023-03-06T05:08:59.950Z,78.94
2023-03-06T05:11:27.958Z,79.13
2023-03-06T05:13:55.908Z,78.66
2023-03-06T05:16:25.232Z,78.64
2023-03-06T05:18:53.043Z,78.93
2023-03-06T05:21:21.195Z,78.84
2023-03-06T05:23:49.836Z,78.60
2023-03-06T05:26:17.787Z,78.57
2023-03-06T05:28:45.720Z,78.22
2023-03-06T05:31:13.616Z,78.43
2023-03-06T05:33:42.899Z,78.42
2023-03-06T05:36:11.242Z,78.47
2023-03-06T05:38:39.204Z,78.37
2023-03-06T05:41:07.071Z,78.38
2023-03-06T05:43:35.037Z,78.39
2023-03-06T05:46:04.088Z,78.54
2023-03-06T05:48:32.041Z,78.41
2023-03-06T05:51:02.546Z,78.39
2023-03-06T05:53:31.203Z,78.75
2023-03-06T05:56:00.020Z,78.89
2023-03-06T05:58:28.295Z,79.05
2023-03-06T06:00:56.609Z,78.79
2023-03-06T06:03:24.920Z,79.05
2023-03-06T06:05:53.659Z,79.20
2023-03-06T06:08:23.066Z,79.48
2023-03-06T06:10:53.301Z,79.44
2023-03-06T06:13:21.533Z,79.53
2023-03-06T06:15:53.953Z,78.99
2023-03-06T06:18:21.826Z,79.53
2023-03-06T06:20:49.972Z,79.40
2023-03-06T06:23:17.847Z,79.18
2023-03-06T06:25:47.080Z,79.31
2023-03-06T06:28:15.083Z,78.84
2023-03-06T06:30:43.048Z,79.20
2023-03-06T06:33:10.904Z,78.91
2023-03-06T06:35:39.070Z,79.31
2023-03-06T06:38:06.948Z,78.89
2023-03-06T06:40:34.797Z,79.12
2023-03-06T06:43:04.334Z,79.47
2023-03-06T06:45:32.197Z,79.55
2023-03-06T06:48:00.232Z,79.27
2023-03-06T06:50:28.635Z,78.98
2023-03-06T06:52:56.532Z,78.95
2023-03-06T06:55:24.353Z,79.17
2023-03-06T06:57:52.339Z,78.95
2023-03-06T07:00:22.516Z,79.53
2023-03-06T07:02:51.296Z,79.29
2023-03-06T07:05:22.025Z,79.47
2023-03-06T07:07:51.379Z,79.37
2023-03-06T07:10:21.028Z,79.29
2023-03-06T07:12:49.101Z,79.11
2023-03-06T07:15:18.172Z,79.33
2023-03-06T07:17:49.891Z,78.84
2023-03-06T07:20:19.040Z,78.88
2023-03-06T07:22:51.507Z,79.00
2023-03-06T07:25:20.777Z,78.97
2023-03-06T07:27:53.415Z,79.13
2023-03-06T07:30:22.410Z,79.07
2023-03-06T07:32:53.908Z,78.93
2023-03-06T07:35:22.063Z,79.15
2023-03-06T07:37:50.025Z,79.13
2023-03-06T07:40:18.387Z,78.60
2023-03-06T07:42:46.492Z,78.49
2023-03-06T07:45:14.509Z,78.90
2023-03-06T07:47:42.562Z,78.65
2023-03-06T07:50:13.248Z,78.58
2023-03-06T07:52:41.133Z,78.82
2023-03-06T07:55:10.749Z,78.18
2023-03-06T07:57:39.242Z,78.49
2023-03-06T08:00:10.971Z,78.59
2023-03-06T08:02:40.390Z,78.60
2023-03-06T08:05:09.436Z,78.24
2023-03-06T08:07:38.795Z,78.14
2023-03-06T08:10:07.302Z,77.90
2023-03-06T08:12:35.290Z,77.83
2023-03-06T08:15:03.726Z,77.77
2023-03-06T08:17:31.579Z,77.58
2023-03-06T08:19:59.518Z,77.51
2023-03-06T08:22:27.423Z,77.15
2023-03-06T08:24:57.556Z,77.11
2023-03-06T08:27:25.468Z,77.35
2023-03-06T08:29:53.448Z,77.91
2023-03-06T08:32:21.368Z,78.98
2023-03-06T08:34:49.309Z,78.73
2023-03-06T08:37:17.457Z,78.77
2023-03-06T08:39:45.458Z,78.46
2023-03-06T08:42:15.911Z,79.38
2023-03-06T08:44:44.163Z,80.02
2023-03-06T08:47:12.148Z,78.83
2023-03-06T08:49:40.590Z,77.17
2023-03-06T08:52:09.301Z,75.77
2023-03-06T08:54:37.396Z,75.23
2023-03-06T08:57:05.356Z,74.42
2023-03-06T08:59:34.632Z,73.66
2023-03-06T09:02:04.020Z,72.62
2023-03-06T09:04:32.359Z,72.23
2023-03-06T09:07:01.713Z,71.71
2023-03-06T09:09:29.622Z,71.77
2023-03-06T09:11:57.521Z,71.48
2023-03-06T09:14:25.507Z,71.31
2023-03-06T09:16:54.797Z,71.20
2023-03-06T09:19:22.720Z,72.20
2023-03-06T09:21:50.677Z,72.95
2023-03-06T09:24:18.556Z,73.51
2023-03-06T09:26:48.301Z,73.17
2023-03-06T09:29:17.834Z,70.99
2023-03-06T09:31:46.082Z,69.11
2023-03-06T09:34:15.432Z,68.50
2023-03-06T09:36:55.856Z,68.57
2023-03-06T09:39:26.543Z,68.90
2023-03-06T09:41:57.010Z,69.67
2023-03-06T09:44:27.815Z,68.63
2023-03-06T09:47:35.184Z,67.64
2023-03-06T09:50:23.734Z,68.54
2023-03-06T09:53:17.933Z,67.30
2023-03-06T09:55:51.546Z,66.56
2023-03-06T09:58:23.144Z,67.59
2023-03-06T10:00:59.948Z,66.52
2023-03-06T10:03:32.488Z,64.77
2023-03-06T10:06:06.220Z,63.88
2023-03-06T10:08:43.845Z,64.21
2023-03-06T10:11:15.833Z,65.91
2023-03-06T10:13:47.076Z,64.02
2023-03-06T10:16:24.850Z,63.20
2023-03-06T10:18:53.709Z,62.83
2023-03-06T10:21:35.685Z,62.70
2023-03-06T10:24:14.636Z,62.18
2023-03-06T10:26:50.024Z,63.18
2023-03-06T10:29:41.046Z,62.90
2023-03-06T10:32:27.010Z,62.92
2023-03-06T10:35:00.630Z,62.94
2023-03-06T10:37:32.311Z,62.27
2023-03-06T10:40:05.199Z,62.45
2023-03-06T10:42:33.177Z,63.13
2023-03-06T10:45:10.276Z,62.46
2023-03-06T10:47:38.622Z,62.19
2023-03-06T10:50:20.338Z,61.86
2023-03-06T10:53:00.872Z,61.77
2023-03-06T10:55:31.314Z,61.11
2023-03-06T10:58:17.384Z,61.20
2023-03-06T11:00:45.388Z,61.14
2023-03-06T11:03:24.108Z,61.58
2023-03-06T11:06:04.201Z,61.93
2023-03-06T11:08:35.401Z,62.15
2023-03-06T11:11:06.919Z,61.87
2023-03-06T11:13:36.950Z,62.44
2023-03-06T11:16:08.533Z,62.43
2023-03-06T11:18:40.006Z,62.28
2023-03-06T11:21:26.408Z,61.80
2023-03-06T11:23:58.129Z,61.64
2023-03-06T11:26:35.761Z,62.11
2023-03-06T11:29:29.623Z,61.92
2023-03-06T11:32:05.389Z,62.95
2023-03-06T11:34:41.367Z,63.18
2023-03-06T11:37:16.376Z,62.57
2023-03-06T11:39:53.691Z,63.02
2023-03-06T11:42:26.392Z,63.22
2023-03-06T11:45:10.007Z,63.73
2023-03-06T11:47:41.400Z,63.27
2023-03-06T11:50:20.161Z,63.23
2023-03-06T11:52:53.915Z,62.88
2023-03-06T11:55:37.903Z,63.37
2023-03-06T11:58:26.591Z,62.93
2023-03-06T12:01:04.187Z,63.20
2023-03-06T12:03:56.922Z,62.61
2023-03-06T12:06:36.995Z,62.81
2023-03-06T12:09:22.139Z,63.04
2023-03-06T12:12:00.525Z,62.85
2023-03-06T12:14:40.205Z,62.83
2023-03-06T12:17:19.238Z,62.62
2023-03-06T12:20:00.594Z,63.07
2023-03-06T12:22:42.251Z,62.96
2023-03-06T12:25:29.452Z,62.81
2023-03-06T12:28:09.442Z,63.62
2023-03-06T12:31:07.142Z,62.90
2023-03-06T12:33:44.314Z,62.81
2023-03-06T12:36:51.308Z,62.70
2023-03-06T12:39:28.456Z,63.38
2023-03-06T12:42:23.392Z,62.72
2023-03-06T12:45:18.683Z,61.25
2023-03-06T12:47:49.455Z,60.78
2023-03-06T12:50:25.181Z,60.25
2023-03-06T12:52:54.930Z,58.86
2023-03-06T12:55:25.890Z,57.79
2023-03-06T12:57:54.193Z,57.22
2023-03-06T13:01:07.984Z,56.97
2023-03-06T13:03:54.179Z,57.82
2023-03-06T13:06:56.138Z,58.07
2023-03-06T13:09:34.010Z,58.63
2023-03-06T13:12:20.620Z,58.17
2023-03-06T13:14:57.203Z,58.70
2023-03-06T13:17:28.527Z,60.18
2023-03-06T13:20:27.929Z,59.27
2023-03-06T13:22:55.927Z,57.46
2023-03-06T13:25:48.886Z,56.05
2023-03-06T13:28:39.252Z,54.11
2023-03-06T13:31:18.116Z,52.65
2023-03-06T13:33:56.292Z,52.26
2023-03-06T13:36:29.567Z,51.53
2023-03-06T13:39:06.358Z,49.12
2023-03-06T13:41:57.772Z,50.10
2023-03-06T13:44:51.233Z,49.07
2023-03-06T13:48:14.083Z,48.84
2023-03-06T13:50:39.820Z,47.89
2023-03-06T13:53:40.807Z,46.69
2023-03-06T13:56:49.143Z,46.32
2023-03-06T13:59:38.477Z,46.64
2023-03-06T14:02:25.143Z,46.20
2023-03-06T14:04:55.874Z,45.70
2023-03-06T14:07:27.129Z,45.39
2023-03-06T14:10:04.255Z,44.33
2023-03-06T14:12:35.263Z,44.03
2023-03-06T14:15:13.306Z,43.18
2023-03-06T14:17:53.758Z,43.25
2023-03-06T14:20:22.568Z,44.49
2023-03-06T14:22:50.571Z,45.49
2023-03-06T14:25:27.711Z,46.28
2023-03-06T14:28:02.904Z,46.75
2023-03-06T14:30:33.792Z,47.88
2023-03-06T14:33:11.549Z,48.08
2023-03-06T14:35:39.719Z,48.58
2023-03-06T14:38:08.150Z,49.27
2023-03-06T14:40:46.177Z,50.80
2023-03-06T14:43:21.285Z,49.89
2023-03-06T14:45:55.340Z,49.25
2023-03-06T14:48:24.740Z,49.13
2023-03-06T14:50:54.457Z,48.53
2023-03-06T14:53:28.151Z,47.85
2023-03-06T14:56:00.415Z,47.27
2023-03-06T14:58:32.437Z,46.09
2023-03-06T15:01:04.765Z,46.28
2023-03-06T15:03:42.647Z,45.90
2023-03-06T15:06:16.509Z,46.52
2023-03-06T15:08:47.263Z,46.43
2023-03-06T15:11:16.708Z,45.64
2023-03-06T15:14:00.633Z,46.67
2023-03-06T15:16:30.404Z,46.00
2023-03-06T15:19:00.151Z,45.72
2023-03-06T15:21:31.370Z,46.17
2023-03-06T15:23:59.701Z,46.33
2023-03-06T15:26:33.174Z,46.68
2023-03-06T15:29:09.469Z,47.25
2023-03-06T15:31:39.412Z,47.82
2023-03-06T15:34:24.459Z,48.72
2023-03-06T15:36:57.758Z,48.98
2023-03-06T15:39:43.482Z,49.04
2023-03-06T15:42:21.540Z,49.72
2023-03-06T15:44:51.518Z,49.77
2023-03-06T15:47:19.479Z,50.84
2023-03-06T15:49:52.249Z,50.33
2023-03-06T15:52:20.746Z,51.09
2023-03-06T15:54:48.971Z,50.81
2023-03-06T15:57:22.380Z,51.68
2023-03-06T15:59:51.521Z,51.90
2023-03-06T16:02:22.275Z,51.58
2023-03-06T16:04:51.424Z,52.32
2023-03-06T16:07:20.595Z,52.03
2023-03-06T16:09:48.543Z,52.21
2023-03-06T16:12:20.079Z,52.29
2023-03-06T16:14:48.892Z,52.69
2023-03-06T16:17:17.697Z,53.14
2023-03-06T16:19:46.260Z,53.09
2023-03-06T16:22:14.585Z,53.47
2023-03-06T16:24:43.443Z,53.44
2023-03-06T16:27:17.793Z,53.72
2023-03-06T16:29:47.222Z,53.94
2023-03-06T16:32:15.313Z,53.97
2023-03-06T16:34:43.358Z,54.15
2023-03-06T16:37:13.818Z,54.31
2023-03-06T16:39:41.767Z,54.63
2023-03-06T16:42:10.497Z,54.79
2023-03-06T16:44:38.723Z,54.95
2023-03-06T16:47:12.109Z,55.37
2023-03-06T16:49:40.636Z,55.06
2023-03-06T16:52:09.975Z,55.50
2023-03-06T16:54:37.939Z,55.69
2023-03-06T16:57:05.965Z,55.93
2023-03-06T16:59:33.928Z,55.85
2023-03-06T17:02:01.947Z,56.12
2023-03-06T17:04:31.251Z,56.52
2023-03-06T17:06:59.126Z,56.70
2023-03-06T17:09:27.087Z,56.50
2023-03-06T17:11:54.937Z,56.76
2023-03-06T17:14:22.977Z,57.13
2023-03-06T17:16:51.040Z,57.37
2023-03-06T17:19:19.025Z,57.39
2023-03-06T17:21:48.253Z,57.45
2023-03-06T17:24:16.285Z,57.78
2023-03-06T17:26:45.426Z,57.47
2023-03-06T17:29:13.383Z,57.78
2023-03-06T17:31:41.674Z,58.13
2023-03-06T17:34:09.660Z,57.89
2023-03-06T17:36:37.498Z,58.49
2023-03-06T17:39:07.271Z,58.67
2023-03-06T17:41:35.196Z,58.59
2023-03-06T17:44:03.031Z,58.97
2023-03-06T17:46:32.404Z,59.28
2023-03-06T17:49:00.318Z,58.97
2023-03-06T17:51:28.662Z,59.03
2023-03-06T17:53:57.933Z,59.22
2023-03-06T17:56:27.808Z,59.84
2023-03-06T17:58:55.639Z,59.31
2023-03-06T18:01:27.606Z,59.52
2023-03-06T18:03:55.817Z,60.17
2023-03-06T18:06:26.116Z,59.99
2023-03-06T18:08:54.538Z,60.15
2023-03-06T18:11:23.506Z,60.22
2023-03-06T18:13:53.187Z,60.12
2023-03-06T18:16:24.072Z,60.51
2023-03-06T18:18:53.202Z,60.20
2023-03-06T18:21:24.056Z,60.38
2023-03-06T18:23:52.825Z,60.04
2023-03-06T18:26:22.888Z,60.55
2023-03-06T18:28:54.898Z,60.47
2023-03-06T18:31:24.539Z,60.07
2023-03-06T18:33:53.353Z,60.56
2023-03-06T18:36:23.209Z,60.56
2023-03-06T18:38:51.546Z,60.47
2023-03-06T18:41:20.718Z,60.61
2023-03-06T18:43:55.155Z,60.49
2023-03-06T18:46:23.428Z,60.47
2023-03-06T18:48:51.448Z,60.80
2023-03-06T18:51:20.634Z,60.76
2023-03-06T18:53:48.752Z,60.58
2023-03-06T18:56:18.583Z,60.63
2023-03-06T18:58:46.830Z,60.52
2023-03-06T19:01:16.132Z,60.74
2023-03-06T19:03:44.379Z,60.55
2023-03-06T19:06:14.252Z,60.63
2023-03-06T19:08:42.973Z,60.60
2023-03-06T19:11:13.297Z,60.97
2023-03-06T19:13:41.697Z,60.73
2023-03-06T19:16:09.649Z,60.63
2023-03-06T19:18:39.025Z,60.97
2023-03-06T19:21:11.475Z,60.88
2023-03-06T19:23:39.644Z,60.55
2023-03-06T19:26:08.517Z,60.88
2023-03-06T19:28:37.631Z,60.57
2023-03-06T19:31:10.225Z,60.67
2023-03-06T19:33:40.560Z,60.62
2023-03-06T19:36:10.628Z,60.87
2023-03-06T19:38:38.608Z,60.86
2023-03-06T19:41:11.918Z,60.72
2023-03-06T19:43:40.642Z,60.68
2023-03-06T19:46:12.972Z,60.77
2023-03-06T19:48:42.617Z,60.85
2023-03-06T19:51:11.120Z,61.03
2023-03-06T19:53:40.092Z,60.86
2023-03-06T19:56:10.459Z,60.93
2023-03-06T19:58:40.905Z,61.25
2023-03-06T20:01:11.029Z,61.12
2023-03-06T20:03:39.505Z,61.19
2023-03-06T20:06:13.231Z,61.02
2023-03-06T20:08:41.372Z,61.10
2023-03-06T20:11:17.108Z,61.04
2023-03-06T20:13:47.444Z,61.22
2023-03-06T20:16:16.069Z,61.35
2023-03-06T20:18:44.303Z,61.33
2023-03-06T20:21:14.427Z,61.25
2023-03-06T20:23:42.629Z,61.41
2023-03-06T20:26:13.221Z,61.45
2023-03-06T20:28:42.594Z,61.84
2023-03-06T20:31:13.389Z,61.75
2023-03-06T20:33:41.416Z,61.71
2023-03-06T20:36:14.702Z,62.00
2023-03-06T20:38:43.034Z,61.83
2023-03-06T20:41:15.396Z,61.85
2023-03-06T20:43:43.937Z,61.89
2023-03-06T20:46:13.284Z,61.80
2023-03-06T20:48:41.529Z,62.09
2023-03-06T20:51:15.964Z,61.80
2023-03-06T20:53:45.412Z,62.12
2023-03-06T20:56:13.878Z,62.20
2023-03-06T20:58:41.996Z,62.24
2023-03-06T21:01:10.227Z,62.34
2023-03-06T21:03:38.022Z,62.31
2023-03-06T21:06:06.208Z,62.94
2023-03-06T21:08:34.214Z,62.83
2023-03-06T21:11:03.424Z,62.88
2023-03-06T21:13:32.127Z,62.86
2023-03-06T21:16:00.255Z,62.81
2023-03-06T21:18:28.118Z,62.96
2023-03-06T21:20:56.000Z,62.64
2023-03-06T21:23:24.041Z,63.01
2023-03-06T21:25:53.342Z,62.61
2023-03-06T21:28:22.825Z,62.70
2023-03-06T21:30:50.824Z,62.83
2023-03-06T21:33:18.663Z,62.48
2023-03-06T21:35:47.584Z,62.85
2023-03-06T21:38:15.816Z,62.79
2023-03-06T21:40:45.462Z,62.98
2023-03-06T21:43:13.499Z,62.88
2023-03-06T21:45:46.142Z,63.08
2023-03-06T21:48:14.643Z,62.79
2023-03-06T21:50:43.419Z,63.01
2023-03-06T21:53:11.487Z,63.16
2023-03-06T21:55:41.618Z,63.50
2023-03-06T21:58:09.733Z,63.45
2023-03-06T22:00:37.676Z,63.50
2023-03-06T22:03:06.994Z,63.64
2023-03-06T22:05:35.520Z,64.06
2023-03-06T22:08:03.378Z,64.24
2023-03-06T22:10:31.321Z,64.04
2023-03-06T22:12:59.248Z,64.08
2023-03-06T22:15:27.256Z,64.30
2023-03-06T22:17:55.212Z,64.09
2023-03-06T22:20:24.502Z,64.33
2023-03-06T22:22:52.340Z,64.58
2023-03-06T22:25:20.293Z,64.45
2023-03-06T22:27:48.239Z,64.70
2023-03-06T22:30:16.414Z,65.02
2023-03-06T22:32:44.362Z,64.81
2023-03-06T22:35:12.354Z,64.91
2023-03-06T22:37:41.642Z,65.13
2023-03-06T22:40:10.991Z,65.42
2023-03-06T22:42:38.930Z,65.60
2023-03-06T22:45:07.644Z,65.66
2023-03-06T22:47:39.407Z,65.54
2023-03-06T22:50:08.381Z,65.68
2023-03-06T22:52:36.511Z,65.80
2023-03-06T22:55:06.871Z,66.04
2023-03-06T22:57:34.824Z,66.17
2023-03-06T23:00:02.935Z,65.87
2023-03-06T23:02:35.614Z,66.48
2023-03-06T23:05:03.784Z,66.36
2023-03-06T23:07:31.683Z,66.34
2023-03-06T23:09:59.839Z,66.43
2023-03-06T23:12:29.093Z,66.59
2023-03-06T23:14:56.950Z,66.81
2023-03-06T23:17:25.100Z,66.68
2023-03-06T23:19:53.175Z,66.82
2023-03-06T23:22:20.988Z,66.73
2023-03-06T23:24:48.935Z,66.73
2023-03-06T23:27:17.202Z,67.20
2023-03-06T23:29:46.428Z,67.01
2023-03-06T23:32:14.513Z,67.21
2023-03-06T23:34:42.570Z,67.15
2023-03-06T23:37:10.533Z,67.14
2023-03-06T23:39:38.619Z,67.39
2023-03-06T23:42:06.864Z,67.69
2023-03-06T23:44:35.757Z,67.72
2023-03-06T23:47:05.140Z,67.72
2023-03-06T23:49:33.108Z,67.65
2023-03-06T23:52:00.983Z,67.80
2023-03-06T23:54:28.908Z,67.97
2023-03-06T23:56:56.808Z,67.92
2023-03-06T23:59:24.627Z,68.19
